Peter Tähtinen

Laitoksen lentosääsivut

2 viestiä aiheessa

Kuka kertoisi (ja kenelle) että sivuilla on Ruotsin Östersundin kentästä vanha tunnus ESPC jolla ei sääsanomia enää tehdä; kentän uusi tunnus on ESNZ.

 

 

ESNO 291430Z 291518 18005KT CAVOK=

ESNS 291430Z 291523 25005KT CAVOK=

ESNU 291430Z 291524 19005KT CAVOK PROB30 TEMPO 1924 0600 BCFG VV002=

ESNQ 291430Z 291522 25010KT CAVOK PROB40 1822 32010KT 4000 SNRA SCT004 BKN009=

ESOW 291430Z 291521 19007KT CAVOK=

ESPA 291400Z 291523 17006KT CAVOK QFE 1012 QNH 1014=

ESPC NIL=

ESSA 291430Z 291524 19012KT CAVOK=

ESSB 291430Z 291521 19007KT CAVOK=

 

Peter

Jaa viesti


Link to post
Jaa muulla sivustolla

Finavian sivuilta voi lähettää palautetta internet palveluista. Säästin sinulta kuitenkin palautteen lähettämisen vaivan ja pistin itse palautteen asiasta menemään. Odotellaan josko tapahtuisi jotain.

 

Jaa viesti


Link to post
Jaa muulla sivustolla

Luo uusi käyttäjätunnus tai kirjaudu sisään

Sinun täytyy olla jäsen osallistuaksesi keskusteluun

Luo käyttäjätili

Rekisteröi uusi käyttäjätili helposti ja nopeasti!


Luo uusi käyttäjätili

Kirjaudu sisään

Sinulla on jo käyttäjätili?


Kirjaudu sisään